Terminal Aerodrome Forecast
Issued by NWS Twin Cities, MN

Home | Current Version | Previous Version | Text Only | Print | Product List | Glossary Off
Versions: 1 2 3 4 5 6 7 8 9 10 11 12 13 14 15 16 17 18 19 20 21 22 23 24 25

000
FTUS43 KMPX 070800 AAA
TAFMSP
TAF AMD
KMSP 070853Z 0709/0812 30005KT P6SM SKC
     FM071100 28006KT P6SM BKN150
     FM071500 28009KT P6SM SCT040 BKN080
      TEMPO 0722/0802 3SM -TSRA OVC025CB
     FM080500 29006KT P6SM BKN250=

USA.gov is the U.S. government's official web portal to all federal, state and local government web resources and services.